createdAt,value
2022-08-30T00:00:56.292Z,98394.53
2022-08-30T00:03:22.890Z,98412.69
2022-08-30T00:05:49.898Z,98411.25
2022-08-30T00:08:16.882Z,98396.38
2022-08-30T00:10:44.137Z,98415.41
2022-08-30T00:13:12.682Z,98404.22
2022-08-30T00:15:41.281Z,98413.84
2022-08-30T00:18:08.074Z,98412.47
2022-08-30T00:20:35.879Z,98412.06
2022-08-30T00:23:02.707Z,98407.78
2022-08-30T00:25:29.231Z,98411.41
2022-08-30T00:27:55.791Z,98409.59
2022-08-30T00:30:22.347Z,98413.88
2022-08-30T00:32:49.048Z,98410.22
2022-08-30T00:35:18.312Z,98407.34
2022-08-30T00:37:44.762Z,98406.16
2022-08-30T00:40:12.353Z,98390.16
2022-08-30T00:42:40.759Z,98412.47
2022-08-30T00:45:24.972Z,98415.97
2022-08-30T00:47:51.680Z,98413.66
2022-08-30T00:50:21.866Z,98418.47
2022-08-30T00:52:52.923Z,98412.72
2022-08-30T00:55:20.192Z,98424.75
2022-08-30T00:57:48.397Z,98428.66
2022-08-30T01:00:16.221Z,98407.50
2022-08-30T01:02:42.805Z,98404.88
2022-08-30T01:05:10.869Z,98419.72
2022-08-30T01:07:43.261Z,98412.47
2022-08-30T01:10:13.404Z,98418.69
2022-08-30T01:12:41.022Z,98420.50
2022-08-30T01:15:09.026Z,98342.94
2022-08-30T01:17:37.038Z,98428.31
2022-08-30T01:20:09.172Z,98420.09
2022-08-30T01:22:47.444Z,98413.59
2022-08-30T01:25:16.159Z,98412.16
2022-08-30T01:27:48.054Z,98410.50
2022-08-30T01:30:14.611Z,98414.28
2022-08-30T01:32:43.951Z,98415.13
2022-08-30T01:35:13.370Z,98408.97
2022-08-30T01:37:39.960Z,98407.69
2022-08-30T01:40:08.256Z,98412.38
2022-08-30T01:42:35.180Z,98413.31
2022-08-30T01:45:01.803Z,98411.75
2022-08-30T01:47:28.287Z,98422.41
2022-08-30T01:49:54.924Z,98426.91
2022-08-30T01:52:21.466Z,98409.31
2022-08-30T01:54:48.093Z,98393.91
2022-08-30T01:57:17.861Z,98413.59
2022-08-30T01:59:47.487Z,98425.09
2022-08-30T02:02:16.313Z,98415.72
2022-08-30T02:04:43.836Z,98410.84
2022-08-30T02:07:10.774Z,98388.44
2022-08-30T02:09:39.859Z,98401.25
2022-08-30T02:12:07.791Z,98409.69
2022-08-30T02:14:36.904Z,98391.97
2022-08-30T02:17:08.618Z,98410.53
2022-08-30T02:19:35.376Z,98404.00
2022-08-30T02:22:02.469Z,98408.72
2022-08-30T02:24:28.993Z,98405.75
2022-08-30T02:26:55.523Z,98393.69
2022-08-30T02:29:23.616Z,98388.41
2022-08-30T02:31:50.487Z,98397.19
2022-08-30T02:34:18.422Z,98393.50
2022-08-30T02:36:45.722Z,98393.63
2022-08-30T02:39:13.410Z,98393.19
2022-08-30T02:41:41.178Z,98385.38
2022-08-30T02:44:08.570Z,98384.50
2022-08-30T02:46:36.720Z,98380.22
2022-08-30T02:49:23.790Z,98389.81
2022-08-30T02:51:50.411Z,98385.41
2022-08-30T03:02:35.500Z,98386.16
2022-08-30T03:05:03.159Z,98391.13
2022-08-30T03:07:31.077Z,98394.03
2022-08-30T03:09:58.524Z,98387.59
2022-08-30T03:12:25.974Z,98392.38
2022-08-30T03:14:53.494Z,98385.88
2022-08-30T03:17:20.051Z,98398.00
2022-08-30T03:19:47.387Z,98390.97
2022-08-30T03:22:13.888Z,98384.00
2022-08-30T03:24:40.471Z,98383.53
2022-08-30T03:27:07.994Z,98378.63
2022-08-30T03:29:34.873Z,98378.06
2022-08-30T03:32:01.412Z,98375.91
2022-08-30T03:34:28.028Z,98380.59
2022-08-30T03:36:55.653Z,98374.09
2022-08-30T03:39:23.808Z,98370.94
2022-08-30T03:41:50.505Z,98369.44
2022-08-30T03:44:18.561Z,98363.34
2022-08-30T03:46:45.148Z,98368.13
2022-08-30T03:49:11.604Z,98369.88
2022-08-30T03:51:38.090Z,98369.06
2022-08-30T03:54:04.844Z,98368.66
2022-08-30T03:56:31.473Z,98371.38
2022-08-30T03:58:57.997Z,98363.75
2022-08-30T04:01:24.510Z,98368.09
2022-08-30T04:03:50.990Z,98370.81
2022-08-30T04:06:17.831Z,98376.28
2022-08-30T04:08:45.994Z,98374.06
2022-08-30T04:11:14.942Z,98371.16
2022-08-30T04:13:41.769Z,98361.97
2022-08-30T04:16:08.672Z,98373.72
2022-08-30T04:18:36.244Z,98374.66
2022-08-30T04:21:04.204Z,98377.66
2022-08-30T04:23:30.758Z,98380.22
2022-08-30T04:25:57.309Z,98376.75
2022-08-30T04:28:24.055Z,98386.75
2022-08-30T04:30:50.511Z,98390.00
2022-08-30T04:33:17.730Z,98386.41
2022-08-30T04:35:48.673Z,98392.09
2022-08-30T04:38:17.551Z,98388.03
2022-08-30T04:40:48.338Z,98387.09
2022-08-30T04:43:16.337Z,98387.56
2022-08-30T04:45:43.132Z,98384.75
2022-08-30T04:48:10.395Z,98388.91
2022-08-30T04:50:37.033Z,98395.28
2022-08-30T04:53:12.475Z,98391.38
2022-08-30T04:55:40.665Z,98398.91
2022-08-30T04:58:07.449Z,98397.38
2022-08-30T05:00:34.119Z,98405.88
2022-08-30T05:03:00.928Z,98410.75
2022-08-30T05:05:39.724Z,98414.28
2022-08-30T05:08:12.363Z,98412.44
2022-08-30T05:10:45.804Z,98423.06
2022-08-30T05:13:13.163Z,98421.28
2022-08-30T05:15:40.282Z,98415.25
2022-08-30T05:18:08.568Z,98419.44
2022-08-30T05:20:40.226Z,98403.03
2022-08-30T05:23:06.845Z,98420.81
2022-08-30T05:25:37.694Z,98413.84
2022-08-30T05:28:04.603Z,98409.44
2022-08-30T05:30:34.367Z,98417.47
2022-08-30T05:33:02.324Z,98408.84
2022-08-30T05:35:28.835Z,98403.00
2022-08-30T05:37:55.795Z,98407.84
2022-08-30T05:40:22.792Z,98407.66
2022-08-30T05:42:49.346Z,98405.47
2022-08-30T05:45:16.252Z,98413.81
2022-08-30T05:47:42.788Z,98413.06
2022-08-30T05:50:10.251Z,98411.91
2022-08-30T05:52:38.347Z,98424.81
2022-08-30T05:55:07.620Z,98403.69
2022-08-30T05:57:36.047Z,98353.91
2022-08-30T06:00:07.169Z,98410.06
2022-08-30T06:02:38.803Z,98409.53
2022-08-30T06:05:06.372Z,98401.19
2022-08-30T06:07:32.823Z,98417.44
2022-08-30T06:09:59.447Z,98416.09
2022-08-30T06:12:26.299Z,98417.56
2022-08-30T06:14:53.534Z,98416.06
2022-08-30T06:17:20.177Z,98415.81
2022-08-30T06:19:46.662Z,98412.78
2022-08-30T06:22:13.173Z,98413.88
2022-08-30T06:24:56.552Z,98402.13
2022-08-30T06:27:24.217Z,98405.56
2022-08-30T06:29:51.903Z,98381.00
2022-08-30T06:32:18.660Z,98403.09
2022-08-30T06:34:45.358Z,98414.38
2022-08-30T06:37:11.796Z,98407.69
2022-08-30T06:39:51.198Z,98410.53
2022-08-30T06:42:17.736Z,98407.63
2022-08-30T06:44:45.742Z,98406.31
2022-08-30T06:47:12.327Z,98405.34
2022-08-30T06:49:38.967Z,98401.03
2022-08-30T06:52:08.236Z,98405.19
2022-08-30T06:54:38.349Z,98413.50
2022-08-30T06:57:04.880Z,98416.41
2022-08-30T06:59:32.312Z,98412.94
2022-08-30T07:02:00.220Z,98402.97
2022-08-30T07:04:26.826Z,98378.03
2022-08-30T07:06:53.904Z,98411.72
2022-08-30T07:09:23.021Z,98415.81
2022-08-30T07:11:50.652Z,98413.81
2022-08-30T07:14:17.462Z,98413.19
2022-08-30T07:16:45.530Z,98413.03
2022-08-30T07:19:20.580Z,98417.56
2022-08-30T07:21:49.214Z,98418.28
2022-08-30T07:24:16.638Z,98417.41
2022-08-30T07:26:48.931Z,98414.53
2022-08-30T07:29:17.719Z,98419.06
2022-08-30T07:31:44.381Z,98412.50
2022-08-30T07:34:10.818Z,98409.81
2022-08-30T07:36:38.490Z,98414.53
2022-08-30T07:39:06.914Z,98414.03
2022-08-30T07:41:38.500Z,98411.09
2022-08-30T07:44:09.282Z,98411.63
2022-08-30T07:46:37.889Z,98410.47
2022-08-30T07:49:05.061Z,98401.19
2022-08-30T07:51:38.278Z,98413.09
2022-08-30T07:54:04.871Z,98417.97
2022-08-30T07:56:31.332Z,98406.78
2022-08-30T07:58:57.896Z,98401.97
2022-08-30T08:01:24.694Z,98407.03
2022-08-30T08:03:51.735Z,98408.47
2022-08-30T08:06:20.802Z,98404.94
2022-08-30T08:08:47.514Z,98407.53
2022-08-30T08:11:23.260Z,98406.94
2022-08-30T08:13:53.741Z,98410.53
2022-08-30T08:16:23.167Z,98401.44
2022-08-30T08:18:50.026Z,98410.97
2022-08-30T08:21:16.549Z,98402.63
2022-08-30T08:23:43.749Z,98409.06
2022-08-30T08:26:10.272Z,98414.72
2022-08-30T08:28:36.735Z,98399.38
2022-08-30T08:31:03.626Z,98400.72
2022-08-30T08:33:31.318Z,98404.41
2022-08-30T08:35:57.817Z,98399.63
2022-08-30T08:38:24.252Z,98404.13
2022-08-30T08:41:02.601Z,98401.16
2022-08-30T08:43:33.202Z,98394.41
2022-08-30T08:46:37.628Z,98397.50
2022-08-30T08:49:08.173Z,98400.19
2022-08-30T08:51:58.758Z,98402.19
2022-08-30T08:54:34.116Z,98396.22
2022-08-30T08:57:01.176Z,98400.41
2022-08-30T08:59:27.819Z,98403.66
2022-08-30T09:01:58.728Z,98398.88
2022-08-30T09:04:34.385Z,98382.84
2022-08-30T09:07:05.674Z,98399.94
2022-08-30T09:09:35.621Z,98399.16
2022-08-30T09:12:02.911Z,98393.53
2022-08-30T09:14:44.240Z,98396.38
2022-08-30T09:17:18.161Z,98394.00
2022-08-30T09:20:05.413Z,98387.16
2022-08-30T09:22:38.129Z,98387.47
2022-08-30T09:25:20.354Z,98391.06
2022-08-30T09:27:49.702Z,98380.72
2022-08-30T09:30:18.235Z,98388.78
2022-08-30T09:32:57.511Z,98387.84
2022-08-30T09:35:36.726Z,98375.94
2022-08-30T09:38:07.525Z,98368.84
2022-08-30T09:40:44.774Z,98371.09
2022-08-30T09:43:25.676Z,98364.31
2022-08-30T09:46:01.622Z,98371.94
2022-08-30T09:48:40.342Z,98371.53
2022-08-30T09:51:15.744Z,98374.09
2022-08-30T09:54:16.650Z,98372.63
2022-08-30T09:57:12.736Z,98375.88
2022-08-30T10:00:05.172Z,98371.91
2022-08-30T10:02:51.120Z,98373.03
2022-08-30T10:05:23.520Z,98370.81
2022-08-30T10:08:25.276Z,98373.50
2022-08-30T10:11:01.335Z,98363.47
2022-08-30T10:14:06.427Z,98363.47
2022-08-30T10:16:42.833Z,98351.66
2022-08-30T10:19:31.164Z,98344.41
2022-08-30T10:22:04.635Z,98333.44
2022-08-30T10:24:37.790Z,98342.63
2022-08-30T10:27:29.200Z,98339.72
2022-08-30T10:30:13.733Z,98347.13
2022-08-30T10:32:48.073Z,98334.56
2022-08-30T10:35:19.518Z,98342.63
2022-08-30T10:37:58.540Z,98322.81
2022-08-30T10:40:50.593Z,98326.06
2022-08-30T10:43:23.526Z,98331.94
2022-08-30T10:45:53.501Z,98333.09
2022-08-30T10:48:49.583Z,98340.44
2022-08-30T10:51:42.004Z,98329.94
2022-08-30T10:54:18.682Z,98333.34
2022-08-30T10:56:49.412Z,98335.13
2022-08-30T10:59:20.426Z,98332.78
2022-08-30T11:02:15.514Z,98330.63
2022-08-30T11:05:11.311Z,98329.66
2022-08-30T11:07:43.641Z,98337.47
2022-08-30T11:11:06.632Z,98339.59
2022-08-30T11:13:41.850Z,98339.31
2022-08-30T11:16:15.339Z,98317.50
2022-08-30T11:18:50.945Z,98319.56
2022-08-30T11:21:41.595Z,98328.66
2022-08-30T11:24:11.857Z,98310.53
2022-08-30T11:26:52.211Z,98326.22
2022-08-30T11:29:36.447Z,98315.50
2022-08-30T11:32:11.991Z,98321.03
2022-08-30T11:34:44.470Z,98318.38
2022-08-30T11:37:35.765Z,98325.56
2022-08-30T11:40:24.543Z,98321.88
2022-08-30T11:42:54.391Z,98316.59
2022-08-30T11:45:25.453Z,98311.72
2022-08-30T11:47:54.410Z,98318.81
2022-08-30T11:50:29.745Z,98318.28
2022-08-30T11:53:21.272Z,98311.28
2022-08-30T11:56:00.564Z,98321.06
2022-08-30T11:58:30.077Z,98315.88
2022-08-30T12:01:42.194Z,98316.63
2022-08-30T12:04:33.735Z,98298.66
2022-08-30T12:07:05.528Z,98306.00
2022-08-30T12:09:35.162Z,98310.25
2022-08-30T12:12:30.564Z,98298.53
2022-08-30T12:14:57.755Z,98303.31
2022-08-30T12:18:13.220Z,98296.03
2022-08-30T12:20:46.477Z,98304.56
2022-08-30T12:23:44.187Z,98304.09
2022-08-30T12:26:20.668Z,98298.19
2022-08-30T12:28:49.140Z,98308.00
2022-08-30T12:31:22.575Z,98291.81
2022-08-30T12:33:54.480Z,98299.69
2022-08-30T12:36:40.353Z,98298.41
2022-08-30T12:39:10.774Z,98293.06
2022-08-30T12:41:43.494Z,98289.88
2022-08-30T12:44:16.502Z,98285.50
2022-08-30T12:46:48.248Z,98271.53
2022-08-30T12:49:17.689Z,98274.59
2022-08-30T12:51:44.866Z,98282.81
2022-08-30T12:54:16.413Z,98276.03
2022-08-30T12:56:53.934Z,98272.81
2022-08-30T12:59:39.043Z,98274.19
2022-08-30T13:02:20.223Z,98277.59
2022-08-30T13:04:48.874Z,98266.72
2022-08-30T13:07:35.596Z,98266.81
2022-08-30T13:10:13.303Z,98262.66
2022-08-30T13:12:40.360Z,98257.66
2022-08-30T13:15:19.820Z,98265.34
2022-08-30T13:17:46.922Z,98255.09
2022-08-30T13:20:16.477Z,98257.22
2022-08-30T13:25:30.251Z,98245.81
2022-08-30T13:28:00.989Z,98246.34
2022-08-30T13:30:28.190Z,98239.22
2022-08-30T13:32:55.832Z,98233.28
2022-08-30T13:35:22.523Z,98236.38
2022-08-30T13:37:51.401Z,98233.63
2022-08-30T13:40:20.448Z,98225.78
2022-08-30T13:42:47.501Z,98225.28
2022-08-30T13:48:02.227Z,98221.41
2022-08-30T13:50:30.505Z,98223.94
2022-08-30T13:52:57.499Z,98217.13
2022-08-30T13:55:23.963Z,98221.81
2022-08-30T13:57:54.352Z,98213.09
2022-08-30T14:00:23.563Z,98210.59
2022-08-30T14:02:54.618Z,98209.97
2022-08-30T14:11:05.416Z,98213.75
2022-08-30T14:13:32.875Z,98202.84
2022-08-30T14:18:48.318Z,98188.03
2022-08-30T14:21:15.828Z,98211.84
2022-08-30T14:23:42.399Z,98197.88
2022-08-30T14:26:18.180Z,98189.41
2022-08-30T14:28:45.062Z,98187.19
2022-08-30T14:31:12.262Z,98174.69
2022-08-30T14:33:39.814Z,98182.84
2022-08-30T14:36:10.946Z,98177.69
2022-08-30T14:38:40.026Z,98174.19
2022-08-30T14:41:10.621Z,98175.84
2022-08-30T14:43:39.674Z,98167.56
2022-08-30T14:46:07.310Z,98161.00
2022-08-30T14:48:34.351Z,98166.47
2022-08-30T14:51:01.816Z,98168.53
2022-08-30T14:53:28.472Z,98172.31
2022-08-30T14:55:54.889Z,98169.19
2022-08-30T14:58:21.351Z,98167.78
2022-08-30T15:00:52.351Z,98067.28
2022-08-30T15:03:18.889Z,98163.78
2022-08-30T15:05:53.052Z,98153.78
2022-08-30T15:08:19.883Z,98155.41
2022-08-30T15:10:47.341Z,98152.22
2022-08-30T15:13:14.179Z,98161.72
2022-08-30T15:15:42.815Z,98154.09
2022-08-30T15:18:09.683Z,98159.34
2022-08-30T15:20:37.486Z,98144.91
2022-08-30T15:23:05.067Z,98151.69
2022-08-30T15:25:31.508Z,98158.66
2022-08-30T15:27:57.979Z,98151.97
2022-08-30T15:30:24.483Z,98164.66
2022-08-30T15:32:50.918Z,98156.13
2022-08-30T15:35:17.373Z,98161.25
2022-08-30T15:37:43.817Z,98153.72
2022-08-30T15:40:10.584Z,98156.63
2022-08-30T15:42:37.130Z,98151.47
2022-08-30T15:45:04.725Z,98149.56
2022-08-30T15:47:32.960Z,98146.03
2022-08-30T15:50:02.993Z,98152.91
2022-08-30T15:52:31.176Z,98146.19
2022-08-30T15:54:58.370Z,98152.13
2022-08-30T15:57:25.716Z,98147.78
2022-08-30T15:59:54.568Z,98150.72
2022-08-30T16:02:21.933Z,98137.38
2022-08-30T16:04:54.171Z,98141.88
2022-08-30T16:07:20.699Z,98140.72
2022-08-30T16:09:47.479Z,98115.50
2022-08-30T16:12:22.297Z,98128.19
2022-08-30T16:14:50.024Z,98131.06
2022-08-30T16:17:16.502Z,98129.78
2022-08-30T16:19:44.904Z,98134.94
2022-08-30T16:22:11.616Z,98137.66
2022-08-30T16:24:38.511Z,98131.56
2022-08-30T16:27:05.760Z,98138.78
2022-08-30T16:29:35.596Z,98140.41
2022-08-30T16:32:03.121Z,98146.50
2022-08-30T16:34:29.640Z,98127.41
2022-08-30T16:36:59.883Z,98145.25
2022-08-30T16:39:26.339Z,98138.81
2022-08-30T16:41:52.813Z,98140.56
2022-08-30T16:44:19.263Z,98141.25
2022-08-30T16:46:53.456Z,98145.25
2022-08-30T16:49:22.716Z,98137.56
2022-08-30T16:51:49.732Z,98143.16
2022-08-30T16:54:17.491Z,98145.38
2022-08-30T16:56:44.368Z,98141.41
2022-08-30T16:59:13.133Z,98141.41
2022-08-30T17:01:42.279Z,98142.34
2022-08-30T17:04:10.927Z,98131.94
2022-08-30T17:06:39.983Z,98138.66
2022-08-30T17:09:08.448Z,98132.25
2022-08-30T17:11:37.255Z,98129.06
2022-08-30T17:14:04.332Z,98140.94
2022-08-30T17:16:30.846Z,98133.22
2022-08-30T17:18:59.703Z,98137.38
2022-08-30T17:21:28.848Z,98137.56
2022-08-30T17:24:02.127Z,98145.44
2022-08-30T17:26:33.844Z,98146.84
2022-08-30T17:29:00.967Z,98144.94
2022-08-30T17:31:30.291Z,98147.22
2022-08-30T17:34:03.329Z,98156.84
2022-08-30T17:36:32.523Z,98151.41
2022-08-30T17:38:59.048Z,98138.81
2022-08-30T17:41:25.526Z,98149.09
2022-08-30T17:43:51.965Z,98148.78
2022-08-30T17:46:20.553Z,98157.94
2022-08-30T17:48:47.576Z,98152.94
2022-08-30T17:51:24.400Z,98159.38
2022-08-30T17:53:50.847Z,98161.63
2022-08-30T17:56:18.136Z,98161.28
2022-08-30T17:58:45.096Z,98165.44
2022-08-30T18:01:14.499Z,98162.88
2022-08-30T18:03:42.126Z,98170.06
2022-08-30T18:06:12.656Z,98167.78
2022-08-30T18:08:39.500Z,98169.47
2022-08-30T18:11:06.699Z,98169.75
2022-08-30T18:13:33.604Z,98163.41
2022-08-30T18:16:02.338Z,98175.28
2022-08-30T18:21:35.928Z,98183.31
2022-08-30T18:24:04.358Z,98175.25
2022-08-30T18:26:31.991Z,98181.47
2022-08-30T18:28:59.560Z,98181.19
2022-08-30T18:31:26.918Z,98173.53
2022-08-30T18:33:54.887Z,98170.56
2022-08-30T18:36:21.703Z,98172.97
2022-08-30T18:38:48.912Z,98166.84
2022-08-30T18:41:16.533Z,98163.94
2022-08-30T18:43:44.772Z,98156.84
2022-08-30T18:49:58.693Z,98175.41
2022-08-30T18:52:27.761Z,98176.75
2022-08-30T18:54:54.296Z,98182.22
2022-08-30T18:57:25.338Z,98189.88
2022-08-30T18:59:51.804Z,98184.31
2022-08-30T19:02:18.486Z,98183.19
2022-08-30T19:04:45.711Z,98194.78
2022-08-30T19:07:15.357Z,98186.44
2022-08-30T19:09:43.084Z,98194.78
2022-08-30T19:12:11.502Z,98202.06
2022-08-30T19:14:38.736Z,98200.16
2022-08-30T19:17:07.100Z,98203.88
2022-08-30T19:19:34.745Z,98194.09
2022-08-30T19:22:02.051Z,98199.91
2022-08-30T19:24:28.680Z,98204.34
2022-08-30T19:26:55.491Z,98203.19
2022-08-30T19:29:22.075Z,98173.19
2022-08-30T19:31:51.626Z,98204.44
2022-08-30T19:34:19.056Z,98208.06
2022-08-30T19:36:45.530Z,98205.16
2022-08-30T19:39:13.966Z,98214.34
2022-08-30T19:41:41.451Z,98212.78
2022-08-30T19:44:07.924Z,98209.34
2022-08-30T19:46:36.325Z,98216.56
2022-08-30T19:49:04.637Z,98219.09
2022-08-30T19:54:17.848Z,98215.88
2022-08-30T19:56:44.787Z,98220.78
2022-08-30T19:59:11.281Z,98215.28
2022-08-30T20:01:38.484Z,98221.91
2022-08-30T20:04:05.117Z,98216.38
2022-08-30T20:06:32.980Z,98225.66
2022-08-30T20:09:00.699Z,98220.13
2022-08-30T20:11:28.062Z,98220.72
2022-08-30T20:13:54.584Z,98227.84
2022-08-30T20:16:21.316Z,98217.59
2022-08-30T20:18:59.643Z,98219.41
2022-08-30T20:21:26.090Z,98223.25
2022-08-30T20:23:52.507Z,98228.00
2022-08-30T20:26:19.091Z,98232.31
2022-08-30T20:28:45.575Z,98227.59
2022-08-30T20:31:12.952Z,98219.22
2022-08-30T20:33:40.354Z,98228.19
2022-08-30T20:36:10.796Z,98227.19
2022-08-30T20:38:38.587Z,98202.41
2022-08-30T20:41:14.123Z,98220.47
2022-08-30T20:43:40.705Z,98229.28
2022-08-30T20:46:14.255Z,98226.00
2022-08-30T20:48:41.722Z,98220.75
2022-08-30T20:51:10.138Z,98221.47
2022-08-30T20:53:37.250Z,98196.56
2022-08-30T20:56:04.600Z,98214.47
2022-08-30T20:58:31.158Z,98219.41
2022-08-30T21:00:57.702Z,98210.75
2022-08-30T21:03:27.596Z,98203.38
2022-08-30T21:05:55.990Z,98213.59
2022-08-30T21:08:22.576Z,98208.31
2022-08-30T21:10:49.175Z,98215.88
2022-08-30T21:13:15.707Z,98213.41
2022-08-30T21:15:45.904Z,98217.47
2022-08-30T21:18:15.382Z,98223.44
2022-08-30T21:20:42.281Z,98213.50
2022-08-30T21:23:09.137Z,98222.63
2022-08-30T21:25:38.559Z,98221.91
2022-08-30T21:28:05.010Z,98217.16
2022-08-30T21:30:31.549Z,98231.84
2022-08-30T21:32:59.997Z,98222.38
2022-08-30T21:35:45.800Z,98227.50
2022-08-30T21:38:12.233Z,98226.59
2022-08-30T21:40:38.876Z,98221.78
2022-08-30T21:43:07.431Z,98223.97
2022-08-30T21:45:41.183Z,98228.63
2022-08-30T21:48:08.744Z,98235.06
2022-08-30T21:50:37.670Z,98232.56
2022-08-30T21:53:05.712Z,98241.22
2022-08-30T21:55:32.904Z,98227.66
2022-08-30T21:57:59.535Z,98244.53
2022-08-30T22:00:26.338Z,98247.75
2022-08-30T22:02:53.076Z,98247.00
2022-08-30T22:05:19.961Z,98249.84
2022-08-30T22:07:46.454Z,98253.34
2022-08-30T22:10:12.927Z,98257.34
2022-08-30T22:12:41.576Z,98254.75
2022-08-30T22:15:09.384Z,98255.03
2022-08-30T22:17:35.918Z,98258.97
2022-08-30T22:20:03.906Z,98266.03
2022-08-30T22:22:30.425Z,98264.22
2022-08-30T22:24:56.849Z,98248.41
2022-08-30T22:27:23.375Z,98186.59
2022-08-30T22:29:49.917Z,98265.41
2022-08-30T22:32:16.455Z,98272.81
2022-08-30T22:34:46.968Z,98271.78
2022-08-30T22:37:13.452Z,98266.34
2022-08-30T22:39:39.907Z,98271.03
2022-08-30T22:42:07.752Z,98268.06
2022-08-30T22:44:34.251Z,98271.34
2022-08-30T22:47:01.228Z,98270.75
2022-08-30T22:49:27.720Z,98268.81
2022-08-30T22:51:54.347Z,98276.06
2022-08-30T22:54:20.889Z,98270.00
2022-08-30T22:56:47.359Z,98271.72
2022-08-30T22:59:14.963Z,98277.00
2022-08-30T23:01:45.360Z,98276.41
2022-08-30T23:04:12.715Z,98276.78
2022-08-30T23:06:40.464Z,98279.34
2022-08-30T23:09:07.926Z,98267.47
2022-08-30T23:11:36.545Z,98243.50
2022-08-30T23:14:05.058Z,98271.50
2022-08-30T23:16:32.510Z,98273.88
2022-08-30T23:18:59.949Z,98271.88
2022-08-30T23:21:29.006Z,98275.09
2022-08-30T23:24:15.760Z,98276.44
2022-08-30T23:27:03.093Z,98276.22
2022-08-30T23:29:49.107Z,98250.09
2022-08-30T23:32:34.054Z,98281.41
2022-08-30T23:35:19.636Z,98282.38
2022-08-30T23:38:05.054Z,98250.03
2022-08-30T23:40:50.610Z,98276.94
2022-08-30T23:43:35.489Z,98274.66
2022-08-30T23:46:20.881Z,98280.31
2022-08-30T23:49:07.183Z,98237.78
2022-08-30T23:51:52.778Z,98266.34
2022-08-30T23:54:38.233Z,98252.97
2022-08-30T23:57:23.884Z,98270.72
